createdAt,value
2018-01-23T00:00:14.317Z,101088.80
2018-01-23T00:02:41.872Z,101093.64
2018-01-23T00:05:09.454Z,101085.91
2018-01-23T00:07:37.132Z,101093.17
2018-01-23T00:10:04.673Z,101078.23
2018-01-23T00:12:32.548Z,101084.22
2018-01-23T00:15:00.098Z,101086.22
2018-01-23T00:17:27.649Z,101085.97
2018-01-23T00:21:39.095Z,101093.50
2018-01-23T00:24:06.677Z,101101.80
2018-01-23T00:26:34.251Z,101103.11
2018-01-23T00:29:01.801Z,101101.66
2018-01-23T00:31:29.330Z,101110.16
2018-01-23T00:33:56.899Z,101107.77
2018-01-23T00:36:24.411Z,101095.20
2018-01-23T00:38:52.075Z,101098.64
2018-01-23T00:41:19.598Z,101096.19
2018-01-23T00:43:47.468Z,101103.18
2018-01-23T00:46:15.012Z,101108.16
2018-01-23T00:48:42.534Z,101108.64
2018-01-23T00:51:10.090Z,101108.66
2018-01-23T00:53:37.632Z,101100.53
2018-01-23T00:56:05.192Z,101104.67
2018-01-23T00:58:32.754Z,101114.50
2018-01-23T01:01:00.275Z,101111.45
2018-01-23T01:03:27.811Z,101107.97
2018-01-23T01:05:55.388Z,101118.33
2018-01-23T01:08:22.972Z,101116.99
2018-01-23T01:10:50.625Z,101121.01
2018-01-23T01:13:18.151Z,101115.67
2018-01-23T01:15:45.729Z,101117.70
2018-01-23T01:18:13.267Z,101117.17
2018-01-23T01:20:40.816Z,101125.02
2018-01-23T01:23:08.368Z,101116.16
2018-01-23T01:25:35.936Z,101122.72
2018-01-23T01:28:03.504Z,101136.61
2018-01-23T01:30:31.064Z,101134.67
2018-01-23T01:32:58.649Z,101142.39
2018-01-23T01:35:26.206Z,101142.19
2018-01-23T01:37:53.825Z,101144.09
2018-01-23T01:40:21.431Z,101147.34
2018-01-23T01:42:49.000Z,101137.92
2018-01-23T01:45:16.525Z,101146.16
2018-01-23T01:47:44.117Z,101151.13
2018-01-23T01:50:11.673Z,101154.84
2018-01-23T01:52:39.225Z,101158.26
2018-01-23T01:55:06.772Z,101151.89
2018-01-23T01:57:34.425Z,101156.57
2018-01-23T02:00:01.979Z,101161.20
2018-01-23T02:02:29.564Z,101160.24
2018-01-23T02:04:57.116Z,101159.37
2018-01-23T02:07:24.698Z,101160.75
2018-01-23T02:09:52.253Z,101169.23
2018-01-23T02:12:19.933Z,101176.56
2018-01-23T02:14:47.456Z,101167.29
2018-01-23T02:17:15.001Z,101168.05
2018-01-23T02:19:42.577Z,101170.37
2018-01-23T02:22:10.114Z,101172.70
2018-01-23T02:24:37.697Z,101169.91
2018-01-23T02:27:05.266Z,101174.26
2018-01-23T02:29:32.812Z,101171.69
2018-01-23T02:32:00.338Z,101182.90
2018-01-23T02:34:28.013Z,101172.15
2018-01-23T02:36:55.561Z,101170.77
2018-01-23T02:39:23.165Z,101181.02
2018-01-23T02:41:50.764Z,101184.98
2018-01-23T02:44:18.314Z,101191.34
2018-01-23T02:46:45.919Z,101182.14
2018-01-23T02:49:13.442Z,101184.85
2018-01-23T02:51:40.990Z,101196.89
2018-01-23T02:54:08.564Z,101197.38
2018-01-23T02:56:36.080Z,101194.38
2018-01-23T02:59:03.629Z,101199.58
2018-01-23T03:01:31.526Z,101201.88
2018-01-23T03:03:59.081Z,101206.03
2018-01-23T03:06:26.630Z,101211.05
2018-01-23T03:08:54.158Z,101210.06
2018-01-23T03:11:21.699Z,101221.57
2018-01-23T03:13:49.212Z,101222.61
2018-01-23T03:16:16.755Z,101223.07
2018-01-23T03:18:44.290Z,101230.58
2018-01-23T03:21:11.833Z,101230.27
2018-01-23T03:23:39.398Z,101241.30
2018-01-23T03:26:06.968Z,101233.87
2018-01-23T03:28:34.626Z,101238.34
2018-01-23T03:31:02.378Z,101243.16
2018-01-23T03:33:29.954Z,101242.22
2018-01-23T03:35:57.660Z,101242.47
2018-01-23T03:38:25.255Z,101232.70
2018-01-23T03:40:52.822Z,101238.47
2018-01-23T03:43:20.694Z,101241.72
2018-01-23T03:45:48.413Z,101238.53
2018-01-23T03:48:15.978Z,101244.67
2018-01-23T03:50:43.527Z,101250.77
2018-01-23T03:53:11.276Z,101257.30
2018-01-23T03:55:38.856Z,101249.94
2018-01-23T03:58:06.593Z,101254.80
2018-01-23T04:00:34.933Z,101259.13
2018-01-23T04:03:02.637Z,101261.06
2018-01-23T04:05:30.192Z,101267.42
2018-01-23T04:07:57.708Z,101267.42
2018-01-23T04:10:25.318Z,101264.94
2018-01-23T04:12:52.876Z,101273.94
2018-01-23T04:15:20.560Z,101276.37
2018-01-23T04:17:48.145Z,101276.97
2018-01-23T04:20:15.710Z,101290.52
2018-01-23T04:22:43.272Z,101288.69
2018-01-23T04:25:10.783Z,101281.01
2018-01-23T04:27:38.341Z,101288.98
2018-01-23T04:30:05.966Z,101291.91
2018-01-23T04:32:33.521Z,101290.59
2018-01-23T04:35:01.073Z,101293.61
2018-01-23T04:37:28.698Z,101293.63
2018-01-23T04:39:56.270Z,101292.80
2018-01-23T04:42:23.851Z,101286.72
2018-01-23T04:44:51.407Z,101284.98
2018-01-23T04:47:18.990Z,101287.02
2018-01-23T04:49:46.573Z,101292.16
2018-01-23T04:52:14.089Z,101300.02
2018-01-23T04:54:41.668Z,101294.30
2018-01-23T04:57:09.221Z,101298.20
2018-01-23T04:59:36.773Z,101300.41
2018-01-23T05:02:04.501Z,101304.73
2018-01-23T05:04:32.346Z,101303.23
2018-01-23T05:06:59.900Z,101299.94
2018-01-23T05:09:27.458Z,101311.70
2018-01-23T05:11:55.456Z,101310.34
2018-01-23T05:14:23.008Z,101305.88
2018-01-23T05:16:50.536Z,101309.17
2018-01-23T05:19:18.111Z,101306.61
2018-01-23T05:21:45.653Z,101302.59
2018-01-23T05:24:13.200Z,101309.28
2018-01-23T05:26:40.790Z,101313.05
2018-01-23T05:29:08.347Z,101311.80
2018-01-23T05:31:35.933Z,101315.33
2018-01-23T05:34:03.447Z,101309.87
2018-01-23T05:36:31.053Z,101312.25
2018-01-23T05:38:58.636Z,101322.62
2018-01-23T05:41:26.464Z,101318.04
2018-01-23T05:43:53.976Z,101314.75
2018-01-23T05:46:21.527Z,101311.67
2018-01-23T05:48:49.072Z,101315.01
2018-01-23T05:51:16.575Z,101313.62
2018-01-23T05:53:44.173Z,101312.80
2018-01-23T05:56:11.881Z,101317.97
2018-01-23T05:58:39.461Z,101321.06
2018-01-23T06:01:07.090Z,101324.48
2018-01-23T06:03:34.603Z,101325.34
2018-01-23T06:06:02.155Z,101320.34
2018-01-23T06:08:29.698Z,101326.80
2018-01-23T06:10:57.269Z,101329.37
2018-01-23T06:13:24.784Z,101326.80
2018-01-23T06:15:52.706Z,101322.20
2018-01-23T06:18:20.268Z,101321.31
2018-01-23T06:20:47.845Z,101330.86
2018-01-23T06:23:15.416Z,101331.98
2018-01-23T06:25:42.956Z,101325.40
2018-01-23T06:28:10.930Z,101332.92
2018-01-23T06:30:38.608Z,101337.11
2018-01-23T06:33:06.145Z,101330.16
2018-01-23T06:35:34.061Z,101329.48
2018-01-23T06:38:01.626Z,101336.69
2018-01-23T06:40:29.308Z,101334.75
2018-01-23T06:42:57.054Z,101338.85
2018-01-23T06:45:24.768Z,101346.00
2018-01-23T06:47:52.747Z,101347.05
2018-01-23T06:50:20.421Z,101347.49
2018-01-23T06:52:47.935Z,101342.08
2018-01-23T06:55:15.458Z,101348.09
2018-01-23T06:57:43.031Z,101349.66
2018-01-23T07:00:10.821Z,101356.00
2018-01-23T07:02:38.337Z,101358.03
2018-01-23T07:05:05.909Z,101362.37
2018-01-23T07:07:33.453Z,101363.64
2018-01-23T07:10:00.987Z,101362.13
2018-01-23T07:12:28.532Z,101372.72
2018-01-23T07:14:56.125Z,101374.39
2018-01-23T07:17:23.653Z,101381.83
2018-01-23T07:19:51.405Z,101385.39
2018-01-23T07:22:18.961Z,101384.71
2018-01-23T07:24:46.517Z,101387.14
2018-01-23T07:27:14.280Z,101393.46
2018-01-23T07:29:41.907Z,101385.92
2018-01-23T07:32:09.446Z,101396.41
2018-01-23T07:34:37.065Z,101394.71
2018-01-23T07:37:04.794Z,101390.87
2018-01-23T07:39:32.348Z,101395.89
2018-01-23T07:41:59.890Z,101392.70
2018-01-23T07:44:27.747Z,101399.91
2018-01-23T07:46:55.340Z,101400.73
2018-01-23T07:49:22.888Z,101399.42
2018-01-23T07:51:50.451Z,101401.80
2018-01-23T07:54:18.026Z,101411.02
2018-01-23T07:56:45.591Z,101410.00
2018-01-23T07:59:13.166Z,101414.44
2018-01-23T08:01:40.860Z,101418.07
2018-01-23T08:04:08.459Z,101413.89
2018-01-23T08:06:36.004Z,101420.61
2018-01-23T08:09:03.644Z,101420.06
2018-01-23T08:11:31.614Z,101405.43
2018-01-23T08:13:59.419Z,101410.41
2018-01-23T08:16:27.117Z,101410.26
2018-01-23T08:18:54.828Z,101413.61
2018-01-23T08:21:22.390Z,101411.61
2018-01-23T08:23:49.981Z,101410.66
2018-01-23T08:26:17.575Z,101416.80
2018-01-23T08:28:45.145Z,101419.59
2018-01-23T08:31:12.806Z,101416.31
2018-01-23T08:33:40.357Z,101409.03
2018-01-23T08:36:07.881Z,101408.42
2018-01-23T08:38:35.500Z,101408.09
2018-01-23T08:41:03.020Z,101410.89
2018-01-23T08:43:30.710Z,101410.82
2018-01-23T08:45:58.322Z,101416.70
2018-01-23T08:48:25.839Z,101403.70
2018-01-23T08:50:53.445Z,101405.55
2018-01-23T08:53:20.988Z,101400.41
2018-01-23T08:55:48.534Z,101399.41
2018-01-23T08:58:16.153Z,101402.64
2018-01-23T09:00:43.709Z,101392.00
2018-01-23T09:03:11.319Z,101399.72
2018-01-23T09:05:38.926Z,101391.56
2018-01-23T09:08:06.453Z,101400.31
2018-01-23T09:10:34.006Z,101389.31
2018-01-23T09:13:01.547Z,101392.66
2018-01-23T09:15:29.094Z,101381.92
2018-01-23T09:17:56.645Z,101384.75
2018-01-23T09:20:24.221Z,101386.34
2018-01-23T09:22:51.738Z,101389.10
2018-01-23T09:25:19.318Z,101392.20
2018-01-23T09:27:46.934Z,101390.98
2018-01-23T09:30:14.528Z,101393.73
2018-01-23T09:32:42.074Z,101402.27
2018-01-23T09:35:09.624Z,101395.87
2018-01-23T09:37:37.643Z,101398.83
2018-01-23T09:40:05.193Z,101396.23
2018-01-23T09:42:32.752Z,101398.62
2018-01-23T09:45:00.294Z,101395.80
2018-01-23T09:47:28.111Z,101393.91
2018-01-23T09:49:55.663Z,101397.27
2018-01-23T09:52:23.216Z,101407.45
2018-01-23T09:54:50.791Z,101406.56
2018-01-23T09:57:18.358Z,101407.00
2018-01-23T09:59:45.927Z,101407.11
2018-01-23T10:02:13.491Z,101413.50
2018-01-23T10:04:41.116Z,101413.94
2018-01-23T10:07:08.677Z,101407.08
2018-01-23T10:09:36.236Z,101402.46
2018-01-23T10:12:03.819Z,101402.20
2018-01-23T10:14:31.553Z,101402.87
2018-01-23T10:16:59.105Z,101403.03
2018-01-23T10:19:26.668Z,101405.38
2018-01-23T10:21:54.614Z,101400.64
2018-01-23T10:24:22.151Z,101410.94
2018-01-23T10:26:49.705Z,101415.56
2018-01-23T10:29:17.700Z,101406.84
2018-01-23T10:31:45.210Z,101410.50
2018-01-23T10:34:12.719Z,101407.69
2018-01-23T10:36:40.277Z,101412.22
2018-01-23T10:39:07.871Z,101407.03
2018-01-23T10:41:35.458Z,101409.52
2018-01-23T10:44:03.026Z,101412.31
2018-01-23T10:46:30.585Z,101403.87
2018-01-23T10:48:58.285Z,101398.78
2018-01-23T10:51:25.821Z,101388.47
2018-01-23T10:53:53.362Z,101395.61
2018-01-23T10:56:20.915Z,101387.08
2018-01-23T10:58:48.462Z,101385.23
2018-01-23T11:01:16.006Z,101390.55
2018-01-23T11:03:43.857Z,101374.64
2018-01-23T11:06:11.391Z,101371.55
2018-01-23T11:08:38.953Z,101369.06
2018-01-23T11:11:06.525Z,101370.88
2018-01-23T11:13:34.088Z,101364.97
2018-01-23T11:16:01.696Z,101365.25
2018-01-23T11:18:29.253Z,101368.51
2018-01-23T11:20:56.784Z,101362.44
2018-01-23T11:23:24.356Z,101359.99
2018-01-23T11:25:51.914Z,101359.80
2018-01-23T11:28:19.477Z,101349.89
2018-01-23T11:30:47.235Z,101351.05
2018-01-23T11:33:14.759Z,101339.84
2018-01-23T11:35:42.353Z,101341.53
2018-01-23T11:38:09.914Z,101335.36
2018-01-23T11:40:37.435Z,101338.53
2018-01-23T11:43:04.975Z,101337.80
2018-01-23T11:45:32.527Z,101325.33
2018-01-23T11:48:00.081Z,101324.20
2018-01-23T11:50:27.600Z,101331.03
2018-01-23T11:52:55.130Z,101322.46
2018-01-23T11:55:22.690Z,101322.28
2018-01-23T11:57:50.227Z,101320.22
2018-01-23T12:00:17.761Z,101313.53
2018-01-23T12:02:45.585Z,101321.66
2018-01-23T12:05:13.133Z,101315.98
2018-01-23T12:07:40.665Z,101314.42
2018-01-23T12:10:08.399Z,101316.41
2018-01-23T12:12:35.946Z,101312.81
2018-01-23T12:15:03.505Z,101304.87
2018-01-23T12:17:31.077Z,101303.98
2018-01-23T12:19:58.630Z,101298.22
2018-01-23T12:22:26.182Z,101292.92
2018-01-23T12:24:53.733Z,101294.54
2018-01-23T12:27:21.306Z,101298.95
2018-01-23T12:29:48.910Z,101297.25
2018-01-23T12:32:16.660Z,101301.30
2018-01-23T12:34:44.226Z,101287.29
2018-01-23T12:37:11.796Z,101285.47
2018-01-23T12:39:39.408Z,101282.95
2018-01-23T12:42:07.112Z,101280.31
2018-01-23T12:44:34.678Z,101266.53
2018-01-23T12:47:02.518Z,101265.20
2018-01-23T12:49:30.074Z,101265.48
2018-01-23T12:51:57.634Z,101254.17
2018-01-23T12:54:25.251Z,101258.29
2018-01-23T12:56:52.768Z,101243.16
2018-01-23T12:59:20.275Z,101248.55
2018-01-23T13:01:47.826Z,101247.46
2018-01-23T13:04:15.415Z,101240.63
2018-01-23T13:06:42.971Z,101231.52
2018-01-23T13:09:10.553Z,101236.09
2018-01-23T13:11:38.079Z,101233.60
2018-01-23T13:14:06.721Z,101217.06
2018-01-23T13:16:34.285Z,101217.04
2018-01-23T13:19:01.836Z,101210.20
2018-01-23T13:21:29.379Z,101211.27
2018-01-23T13:23:57.030Z,101197.48
2018-01-23T13:26:24.614Z,101201.08
2018-01-23T13:28:52.276Z,101197.70
2018-01-23T13:31:19.889Z,101196.53
2018-01-23T13:33:47.446Z,101202.49
2018-01-23T13:36:14.964Z,101189.13
2018-01-23T13:38:42.550Z,101185.54
2018-01-23T13:41:10.147Z,101184.53
2018-01-23T13:43:37.708Z,101178.55
2018-01-23T13:46:05.594Z,101187.13
2018-01-23T13:48:33.103Z,101184.13
2018-01-23T13:51:00.623Z,101180.56
2018-01-23T13:53:28.172Z,101167.86
2018-01-23T13:55:55.780Z,101164.69
2018-01-23T13:58:23.760Z,101171.69
2018-01-23T14:00:51.278Z,101167.20
2018-01-23T14:03:18.830Z,101161.90
2018-01-23T14:05:46.401Z,101156.47
2018-01-23T14:08:13.996Z,101165.33
2018-01-23T14:10:41.635Z,101165.22
2018-01-23T14:13:09.178Z,101159.77
2018-01-23T14:15:36.748Z,101151.06
2018-01-23T14:18:04.286Z,101138.76
2018-01-23T14:20:31.859Z,101146.95
2018-01-23T14:22:59.370Z,101144.94
2018-01-23T14:25:26.917Z,101137.89
2018-01-23T14:27:54.506Z,101131.60
2018-01-23T14:30:22.032Z,101130.91
2018-01-23T14:32:49.597Z,101128.44
2018-01-23T14:35:17.144Z,101118.92
2018-01-23T14:37:44.687Z,101121.57
2018-01-23T14:40:12.222Z,101120.11
2018-01-23T14:42:39.833Z,101122.35
2018-01-23T14:45:07.352Z,101124.87
2018-01-23T14:50:01.680Z,101122.09
2018-01-23T14:52:29.456Z,101114.69
2018-01-23T14:54:57.025Z,101118.23
2018-01-23T14:57:25.528Z,101111.77
2018-01-23T14:59:53.334Z,101106.49
2018-01-23T15:02:20.949Z,101111.99
2018-01-23T15:04:48.518Z,101113.68
2018-01-23T15:07:16.055Z,101107.80
2018-01-23T15:09:43.586Z,101100.66
2018-01-23T15:12:11.120Z,101096.97
2018-01-23T15:14:38.842Z,101100.41
2018-01-23T15:17:06.437Z,101093.61
2018-01-23T15:19:33.947Z,101099.41
2018-01-23T15:22:01.504Z,101092.66
2018-01-23T15:24:29.078Z,101079.58
2018-01-23T15:26:56.611Z,101081.06
2018-01-23T15:29:24.146Z,101070.86
2018-01-23T15:31:51.667Z,101067.43
2018-01-23T15:34:19.274Z,101075.08
2018-01-23T15:36:46.829Z,101066.36
2018-01-23T15:39:14.378Z,101069.79
2018-01-23T15:41:41.924Z,101074.02
2018-01-23T15:44:09.468Z,101081.69
2018-01-23T15:46:37.045Z,101081.14
2018-01-23T15:49:04.597Z,101084.17
2018-01-23T15:51:32.153Z,101075.61
2018-01-23T15:53:59.684Z,101065.95
2018-01-23T15:56:27.267Z,101076.41
2018-01-23T15:58:54.962Z,101078.38
2018-01-23T16:01:22.514Z,101080.88
2018-01-23T16:03:50.789Z,101074.42
2018-01-23T16:06:18.349Z,101073.59
2018-01-23T16:08:45.928Z,101078.11
2018-01-23T16:11:13.464Z,101077.71
2018-01-23T16:13:40.990Z,101075.07
2018-01-23T16:16:08.571Z,101078.75
2018-01-23T16:18:36.100Z,101058.77
2018-01-23T16:21:03.636Z,101065.47
2018-01-23T16:23:31.171Z,101058.20
2018-01-23T16:25:58.747Z,101056.78
2018-01-23T16:28:26.303Z,101056.39
2018-01-23T16:30:53.901Z,101054.01
2018-01-23T16:33:21.495Z,101057.42
2018-01-23T16:35:49.057Z,101065.39
2018-01-23T16:38:16.641Z,101070.68
2018-01-23T16:40:44.410Z,101065.64
2018-01-23T16:43:11.981Z,101058.90
2018-01-23T16:45:39.542Z,101063.69
2018-01-23T16:48:07.089Z,101062.00
2018-01-23T16:50:34.629Z,101056.14
2018-01-23T16:53:02.533Z,101045.08
2018-01-23T16:55:30.084Z,101044.69
2018-01-23T16:57:57.634Z,101039.91
2018-01-23T17:00:25.220Z,101052.31
2018-01-23T17:02:52.726Z,101045.19
2018-01-23T17:05:20.310Z,101034.75
2018-01-23T17:07:47.891Z,101040.18
2018-01-23T17:10:15.465Z,101040.55
2018-01-23T17:12:43.022Z,101037.39
2018-01-23T17:15:10.609Z,101057.64
2018-01-23T17:17:38.130Z,101042.33
2018-01-23T17:20:05.743Z,101035.72
2018-01-23T17:22:33.293Z,101040.87
2018-01-23T17:25:00.831Z,101033.59
2018-01-23T17:27:28.380Z,101038.09
2018-01-23T17:29:55.961Z,101047.37
2018-01-23T17:32:23.572Z,101031.73
2018-01-23T17:34:51.147Z,101030.83
2018-01-23T17:37:18.678Z,101022.35
2018-01-23T17:39:46.229Z,101034.75
2018-01-23T17:42:13.796Z,101031.33
2018-01-23T17:44:41.319Z,101026.45
2018-01-23T17:47:08.870Z,101020.53
2018-01-23T17:49:36.422Z,101034.39
2018-01-23T17:52:03.977Z,101018.54
2018-01-23T17:54:31.561Z,101026.19
2018-01-23T17:56:59.322Z,101024.48
2018-01-23T17:59:26.950Z,101013.92
2018-01-23T18:01:54.733Z,101013.41
2018-01-23T18:04:22.311Z,101005.34
2018-01-23T18:06:49.867Z,100987.11
2018-01-23T18:09:17.458Z,100993.44
2018-01-23T18:11:45.126Z,100986.31
2018-01-23T18:14:12.702Z,100982.34
2018-01-23T18:16:40.215Z,100974.84
2018-01-23T18:19:07.761Z,100980.51
2018-01-23T18:21:35.349Z,100969.67
2018-01-23T18:24:02.915Z,100967.31
2018-01-23T18:26:30.462Z,100980.49
2018-01-23T18:28:57.974Z,100971.12
2018-01-23T18:31:25.537Z,100969.27
2018-01-23T18:33:53.081Z,100974.31
2018-01-23T18:36:21.017Z,100957.50
2018-01-23T18:38:48.586Z,100970.34
2018-01-23T18:41:16.123Z,100966.64
2018-01-23T18:43:43.760Z,100969.67
2018-01-23T18:46:11.558Z,100976.41
2018-01-23T18:48:39.073Z,100970.73
2018-01-23T18:51:06.615Z,100971.37
2018-01-23T18:53:34.140Z,100964.91
2018-01-23T18:56:01.723Z,100970.98
2018-01-23T18:58:29.281Z,100969.27
2018-01-23T19:00:56.832Z,100955.92
2018-01-23T19:03:24.352Z,100952.63
2018-01-23T19:05:51.898Z,100953.00
2018-01-23T19:08:19.476Z,100945.89
2018-01-23T19:10:46.995Z,100957.38
2018-01-23T19:13:15.637Z,100959.48
2018-01-23T19:15:43.211Z,100954.61
2018-01-23T19:18:10.761Z,100953.96
2018-01-23T19:20:38.369Z,100939.66
2018-01-23T19:23:05.973Z,100947.70
2018-01-23T19:25:33.894Z,100935.97
2018-01-23T19:28:01.814Z,100925.39
2018-01-23T19:30:29.402Z,100936.90
2018-01-23T19:32:56.994Z,100947.46
2018-01-23T19:35:24.626Z,100951.64
2018-01-23T19:37:52.266Z,100928.64
2018-01-23T19:40:19.891Z,100929.82
2018-01-23T19:42:47.459Z,100940.57
2018-01-23T19:45:15.034Z,100935.13
2018-01-23T19:47:42.979Z,100928.86
2018-01-23T19:50:10.535Z,100934.28
2018-01-23T19:52:38.081Z,100926.50
2018-01-23T19:55:05.673Z,100916.38
2018-01-23T19:57:33.663Z,100917.49
2018-01-23T20:00:01.303Z,100912.69
2018-01-23T20:02:28.837Z,100911.17
2018-01-23T20:04:56.687Z,100905.19
2018-01-23T20:07:24.246Z,100908.28
2018-01-23T20:09:51.771Z,100903.31
2018-01-23T20:12:19.366Z,100899.23
2018-01-23T20:14:46.990Z,100909.95
2018-01-23T20:17:14.539Z,100897.79
2018-01-23T20:19:42.104Z,100886.26
2018-01-23T20:22:09.701Z,100891.01
2018-01-23T20:24:37.275Z,100890.20
2018-01-23T20:27:04.892Z,100894.40
2018-01-23T20:29:32.595Z,100894.42
2018-01-23T20:32:00.149Z,100905.56
2018-01-23T20:34:27.667Z,100908.05
2018-01-23T20:36:55.279Z,100904.95
2018-01-23T20:39:22.834Z,100910.20
2018-01-23T20:41:50.384Z,100919.47
2018-01-23T20:44:18.981Z,100931.93
2018-01-23T20:46:46.873Z,100925.03
2018-01-23T20:49:14.430Z,100920.83
2018-01-23T20:51:41.965Z,100919.52
2018-01-23T20:54:09.588Z,100911.23
2018-01-23T20:56:37.114Z,100912.83
2018-01-23T20:59:04.636Z,100916.42
2018-01-23T21:01:32.213Z,100920.92
2018-01-23T21:03:59.767Z,100931.84
2018-01-23T21:06:27.297Z,100937.78
2018-01-23T21:08:54.895Z,100937.13
2018-01-23T21:11:22.461Z,100931.74
2018-01-23T21:13:50.209Z,100926.70
2018-01-23T21:16:17.736Z,100923.34
2018-01-23T21:18:45.334Z,100920.89
2018-01-23T21:21:12.901Z,100935.02
2018-01-23T21:23:40.444Z,100926.24
2018-01-23T21:26:08.055Z,100928.13
2018-01-23T21:28:35.616Z,100923.90
2018-01-23T21:31:03.169Z,100926.70
2018-01-23T21:33:31.069Z,100924.59
2018-01-23T21:35:58.590Z,100922.72
2018-01-23T21:38:26.153Z,100932.44
2018-01-23T21:40:53.695Z,100934.55
2018-01-23T21:43:21.220Z,100931.39
2018-01-23T21:45:48.797Z,100930.05
2018-01-23T21:48:16.347Z,100925.97
2018-01-23T21:50:43.938Z,100928.84
2018-01-23T21:53:11.497Z,100925.52
2018-01-23T21:55:39.053Z,100908.56
2018-01-23T21:58:06.765Z,100915.83
2018-01-23T22:00:34.349Z,100921.52
2018-01-23T22:03:02.119Z,100910.64
2018-01-23T22:05:29.654Z,100916.69
2018-01-23T22:07:57.203Z,100915.94
2018-01-23T22:10:25.016Z,100916.41
2018-01-23T22:12:52.535Z,100902.02
2018-01-23T22:15:20.061Z,100906.60
2018-01-23T22:17:47.675Z,100910.75
2018-01-23T22:20:15.340Z,100903.12
2018-01-23T22:22:43.215Z,100910.19
2018-01-23T22:25:10.744Z,100911.15
2018-01-23T22:27:38.262Z,100905.81
2018-01-23T22:30:05.849Z,100905.23
2018-01-23T22:32:33.430Z,100896.70
2018-01-23T22:35:01.181Z,100905.85
2018-01-23T22:37:28.706Z,100900.12
2018-01-23T22:39:56.290Z,100912.94
2018-01-23T22:42:23.849Z,100915.54
2018-01-23T22:44:51.470Z,100918.52
2018-01-23T22:47:19.028Z,100909.28
2018-01-23T22:49:46.720Z,100908.07
2018-01-23T22:52:14.309Z,100912.00
2018-01-23T22:54:41.819Z,100907.64
2018-01-23T22:57:09.355Z,100914.27
2018-01-23T22:59:36.867Z,100920.56
2018-01-23T23:02:04.697Z,100922.00
2018-01-23T23:04:33.202Z,100921.49
2018-01-23T23:07:00.855Z,100924.10
2018-01-23T23:09:28.436Z,100919.23
2018-01-23T23:11:56.025Z,100920.02
2018-01-23T23:14:23.614Z,100917.09
2018-01-23T23:16:51.148Z,100912.22
2018-01-23T23:19:18.726Z,100911.50
2018-01-23T23:21:46.248Z,100908.28
2018-01-23T23:24:13.776Z,100920.05
2018-01-23T23:26:41.449Z,100909.89
2018-01-23T23:29:09.004Z,100911.50
2018-01-23T23:31:36.693Z,100919.74
2018-01-23T23:34:04.242Z,100907.67
2018-01-23T23:36:34.924Z,100912.14
2018-01-23T23:39:02.513Z,100904.70
2018-01-23T23:41:30.031Z,100899.51
2018-01-23T23:43:57.623Z,100894.09
2018-01-23T23:46:25.181Z,100891.20
2018-01-23T23:48:52.754Z,100892.82
2018-01-23T23:51:20.269Z,100885.77
2018-01-23T23:53:47.837Z,100880.27
2018-01-23T23:56:15.604Z,100875.03
2018-01-23T23:58:43.161Z,100880.05
